sensor_id;sensor_type;location;lat;lon;timestamp;P1;durP1;ratioP1;P2;durP2;ratioP2
30998;SDS011;20549;50.042;8.968;2023-12-07T00:01:34;8.13;;;6.70;;
30998;SDS011;20549;50.042;8.968;2023-12-07T00:04:01;7.03;;;6.33;;
30998;SDS011;20549;50.042;8.968;2023-12-07T00:06:27;8.63;;;7.00;;
30998;SDS011;20549;50.042;8.968;2023-12-07T00:08:54;9.00;;;7.23;;
30998;SDS011;20549;50.042;8.968;2023-12-07T00:11:23;7.60;;;6.50;;
30998;SDS011;20549;50.042;8.968;2023-12-07T00:13:49;7.83;;;7.10;;
30998;SDS011;20549;50.042;8.968;2023-12-07T00:16:16;9.37;;;6.67;;
30998;SDS011;20549;50.042;8.968;2023-12-07T00:18:43;7.43;;;6.70;;
30998;SDS011;20549;50.042;8.968;2023-12-07T00:21:09;8.33;;;6.73;;
30998;SDS011;20549;50.042;8.968;2023-12-07T00:23:36;8.63;;;7.73;;
30998;SDS011;20549;50.042;8.968;2023-12-07T00:26:05;8.60;;;7.73;;
30998;SDS011;20549;50.042;8.968;2023-12-07T00:28:32;12.00;;;7.70;;
30998;SDS011;20549;50.042;8.968;2023-12-07T00:30:58;8.10;;;7.03;;
30998;SDS011;20549;50.042;8.968;2023-12-07T00:33:25;8.67;;;7.13;;
30998;SDS011;20549;50.042;8.968;2023-12-07T00:35:51;7.90;;;6.37;;
30998;SDS011;20549;50.042;8.968;2023-12-07T00:38:18;9.80;;;8.33;;
30998;SDS011;20549;50.042;8.968;2023-12-07T00:40:45;8.70;;;7.40;;
30998;SDS011;20549;50.042;8.968;2023-12-07T00:43:11;9.03;;;7.30;;
30998;SDS011;20549;50.042;8.968;2023-12-07T00:45:38;8.17;;;7.33;;
30998;SDS011;20549;50.042;8.968;2023-12-07T00:48:04;8.97;;;6.97;;
30998;SDS011;20549;50.042;8.968;2023-12-07T00:50:31;8.77;;;7.60;;
30998;SDS011;20549;50.042;8.968;2023-12-07T00:52:58;8.07;;;6.83;;
30998;SDS011;20549;50.042;8.968;2023-12-07T00:55:24;14.23;;;7.83;;
30998;SDS011;20549;50.042;8.968;2023-12-07T00:57:51;8.47;;;7.37;;
30998;SDS011;20549;50.042;8.968;2023-12-07T01:00:17;12.00;;;7.53;;
30998;SDS011;20549;50.042;8.968;2023-12-07T01:02:44;8.17;;;7.30;;
30998;SDS011;20549;50.042;8.968;2023-12-07T01:05:11;12.40;;;7.60;;
30998;SDS011;20549;50.042;8.968;2023-12-07T01:07:37;8.33;;;7.33;;
30998;SDS011;20549;50.042;8.968;2023-12-07T01:10:04;9.90;;;7.00;;
30998;SDS011;20549;50.042;8.968;2023-12-07T01:12:30;10.40;;;7.03;;
30998;SDS011;20549;50.042;8.968;2023-12-07T01:14:57;8.37;;;6.40;;
30998;SDS011;20549;50.042;8.968;2023-12-07T01:17:23;7.10;;;6.40;;
30998;SDS011;20549;50.042;8.968;2023-12-07T01:19:50;9.53;;;6.60;;
30998;SDS011;20549;50.042;8.968;2023-12-07T01:22:17;7.80;;;6.40;;
30998;SDS011;20549;50.042;8.968;2023-12-07T01:24:43;7.10;;;6.10;;
30998;SDS011;20549;50.042;8.968;2023-12-07T01:27:10;7.80;;;6.73;;
30998;SDS011;20549;50.042;8.968;2023-12-07T01:29:36;6.20;;;5.60;;
30998;SDS011;20549;50.042;8.968;2023-12-07T01:32:03;6.30;;;5.70;;
30998;SDS011;20549;50.042;8.968;2023-12-07T01:34:29;8.97;;;6.70;;
30998;SDS011;20549;50.042;8.968;2023-12-07T01:36:56;8.30;;;6.63;;
30998;SDS011;20549;50.042;8.968;2023-12-07T01:39:23;7.67;;;6.70;;
30998;SDS011;20549;50.042;8.968;2023-12-07T01:41:50;7.50;;;6.37;;
30998;SDS011;20549;50.042;8.968;2023-12-07T01:44:16;7.07;;;6.00;;
30998;SDS011;20549;50.042;8.968;2023-12-07T01:46:42;10.37;;;7.00;;
30998;SDS011;20549;50.042;8.968;2023-12-07T01:49:09;7.63;;;6.43;;
30998;SDS011;20549;50.042;8.968;2023-12-07T01:51:36;7.13;;;6.43;;
30998;SDS011;20549;50.042;8.968;2023-12-07T01:54:02;9.53;;;6.47;;
30998;SDS011;20549;50.042;8.968;2023-12-07T01:56:29;6.90;;;6.20;;
30998;SDS011;20549;50.042;8.968;2023-12-07T01:58:57;8.10;;;6.67;;
30998;SDS011;20549;50.042;8.968;2023-12-07T02:01:22;7.10;;;6.40;;
30998;SDS011;20549;50.042;8.968;2023-12-07T02:03:48;9.57;;;6.97;;
30998;SDS011;20549;50.042;8.968;2023-12-07T02:06:15;9.60;;;8.30;;
30998;SDS011;20549;50.042;8.968;2023-12-07T02:08:43;11.77;;;8.20;;
30998;SDS011;20549;50.042;8.968;2023-12-07T02:11:08;9.80;;;7.30;;
30998;SDS011;20549;50.042;8.968;2023-12-07T02:13:38;15.20;;;8.40;;
30998;SDS011;20549;50.042;8.968;2023-12-07T02:16:06;10.40;;;7.77;;
30998;SDS011;20549;50.042;8.968;2023-12-07T02:18:34;11.17;;;8.23;;
30998;SDS011;20549;50.042;8.968;2023-12-07T02:23:36;11.50;;;8.27;;
30998;SDS011;20549;50.042;8.968;2023-12-07T02:26:21;10.93;;;8.23;;
30998;SDS011;20549;50.042;8.968;2023-12-07T02:28:50;13.57;;;8.77;;
30998;SDS011;20549;50.042;8.968;2023-12-07T02:31:17;10.37;;;7.77;;
30998;SDS011;20549;50.042;8.968;2023-12-07T02:33:43;10.80;;;8.07;;
30998;SDS011;20549;50.042;8.968;2023-12-07T02:36:10;8.37;;;6.90;;
30998;SDS011;20549;50.042;8.968;2023-12-07T02:38:37;10.13;;;7.50;;
30998;SDS011;20549;50.042;8.968;2023-12-07T02:41:03;11.10;;;7.53;;
30998;SDS011;20549;50.042;8.968;2023-12-07T02:43:30;9.03;;;7.50;;
30998;SDS011;20549;50.042;8.968;2023-12-07T02:45:56;10.63;;;8.13;;
30998;SDS011;20549;50.042;8.968;2023-12-07T02:48:23;9.13;;;7.73;;
30998;SDS011;20549;50.042;8.968;2023-12-07T02:50:50;8.67;;;7.27;;
30998;SDS011;20549;50.042;8.968;2023-12-07T02:53:17;7.43;;;6.73;;
30998;SDS011;20549;50.042;8.968;2023-12-07T02:55:43;9.60;;;7.03;;
30998;SDS011;20549;50.042;8.968;2023-12-07T02:58:09;7.77;;;6.80;;
30998;SDS011;20549;50.042;8.968;2023-12-07T03:00:36;7.73;;;6.40;;
30998;SDS011;20549;50.042;8.968;2023-12-07T03:03:02;10.47;;;7.00;;
30998;SDS011;20549;50.042;8.968;2023-12-07T03:05:29;6.97;;;6.27;;
30998;SDS011;20549;50.042;8.968;2023-12-07T03:07:56;6.97;;;6.27;;
30998;SDS011;20549;50.042;8.968;2023-12-07T03:10:22;7.73;;;6.17;;
30998;SDS011;20549;50.042;8.968;2023-12-07T03:12:49;6.87;;;5.77;;
30998;SDS011;20549;50.042;8.968;2023-12-07T03:15:15;6.60;;;6.00;;
30998;SDS011;20549;50.042;8.968;2023-12-07T03:17:42;7.87;;;6.27;;
30998;SDS011;20549;50.042;8.968;2023-12-07T03:20:09;7.23;;;5.87;;
30998;SDS011;20549;50.042;8.968;2023-12-07T03:22:35;6.40;;;5.73;;
30998;SDS011;20549;50.042;8.968;2023-12-07T03:25:02;7.13;;;5.73;;
30998;SDS011;20549;50.042;8.968;2023-12-07T03:27:28;6.57;;;5.93;;
30998;SDS011;20549;50.042;8.968;2023-12-07T03:29:55;7.10;;;5.73;;
30998;SDS011;20549;50.042;8.968;2023-12-07T03:32:21;8.40;;;6.30;;
30998;SDS011;20549;50.042;8.968;2023-12-07T03:34:48;8.30;;;5.73;;
30998;SDS011;20549;50.042;8.968;2023-12-07T03:37:15;5.97;;;5.47;;
30998;SDS011;20549;50.042;8.968;2023-12-07T03:39:41;7.27;;;6.17;;
30998;SDS011;20549;50.042;8.968;2023-12-07T03:42:08;8.17;;;5.57;;
30998;SDS011;20549;50.042;8.968;2023-12-07T03:44:34;7.17;;;5.47;;
30998;SDS011;20549;50.042;8.968;2023-12-07T03:47:01;6.60;;;5.43;;
30998;SDS011;20549;50.042;8.968;2023-12-07T03:49:28;6.87;;;5.60;;
30998;SDS011;20549;50.042;8.968;2023-12-07T03:51:54;7.23;;;5.90;;
30998;SDS011;20549;50.042;8.968;2023-12-07T03:54:21;8.30;;;6.57;;
30998;SDS011;20549;50.042;8.968;2023-12-07T03:56:47;7.63;;;6.30;;
30998;SDS011;20549;50.042;8.968;2023-12-07T03:59:14;6.63;;;5.33;;
30998;SDS011;20549;50.042;8.968;2023-12-07T04:01:40;7.83;;;5.70;;
30998;SDS011;20549;50.042;8.968;2023-12-07T04:04:07;6.70;;;6.00;;
30998;SDS011;20549;50.042;8.968;2023-12-07T04:06:34;7.53;;;5.90;;
30998;SDS011;20549;50.042;8.968;2023-12-07T04:09:00;7.97;;;6.10;;
30998;SDS011;20549;50.042;8.968;2023-12-07T04:11:27;6.57;;;5.87;;
30998;SDS011;20549;50.042;8.968;2023-12-07T04:13:53;10.70;;;6.77;;
30998;SDS011;20549;50.042;8.968;2023-12-07T04:16:20;6.03;;;5.43;;
30998;SDS011;20549;50.042;8.968;2023-12-07T04:18:47;7.87;;;6.27;;
30998;SDS011;20549;50.042;8.968;2023-12-07T04:21:13;7.97;;;5.67;;
30998;SDS011;20549;50.042;8.968;2023-12-07T04:23:40;6.30;;;5.70;;
30998;SDS011;20549;50.042;8.968;2023-12-07T04:26:06;6.67;;;6.00;;
30998;SDS011;20549;50.042;8.968;2023-12-07T04:28:33;6.00;;;5.40;;
30998;SDS011;20549;50.042;8.968;2023-12-07T04:30:59;7.53;;;6.20;;
30998;SDS011;20549;50.042;8.968;2023-12-07T04:33:26;6.83;;;5.97;;
30998;SDS011;20549;50.042;8.968;2023-12-07T04:35:53;9.03;;;6.43;;
30998;SDS011;20549;50.042;8.968;2023-12-07T04:38:19;11.97;;;6.37;;
30998;SDS011;20549;50.042;8.968;2023-12-07T04:40:46;5.93;;;5.23;;
30998;SDS011;20549;50.042;8.968;2023-12-07T04:43:12;6.60;;;5.93;;
30998;SDS011;20549;50.042;8.968;2023-12-07T04:45:39;6.57;;;5.87;;
30998;SDS011;20549;50.042;8.968;2023-12-07T04:48:06;7.87;;;6.50;;
30998;SDS011;20549;50.042;8.968;2023-12-07T04:50:32;7.70;;;6.20;;
30998;SDS011;20549;50.042;8.968;2023-12-07T04:52:59;7.87;;;6.53;;
30998;SDS011;20549;50.042;8.968;2023-12-07T04:55:25;10.33;;;6.83;;
30998;SDS011;20549;50.042;8.968;2023-12-07T04:57:52;7.80;;;6.77;;
30998;SDS011;20549;50.042;8.968;2023-12-07T05:00:19;8.03;;;6.93;;
30998;SDS011;20549;50.042;8.968;2023-12-07T05:02:45;8.77;;;7.20;;
30998;SDS011;20549;50.042;8.968;2023-12-07T05:05:12;8.73;;;6.80;;
30998;SDS011;20549;50.042;8.968;2023-12-07T05:07:38;7.57;;;6.73;;
30998;SDS011;20549;50.042;8.968;2023-12-07T05:10:05;11.30;;;6.83;;
30998;SDS011;20549;50.042;8.968;2023-12-07T05:12:31;7.47;;;6.60;;
30998;SDS011;20549;50.042;8.968;2023-12-07T05:14:58;7.23;;;6.40;;
30998;SDS011;20549;50.042;8.968;2023-12-07T05:17:25;8.03;;;7.20;;
30998;SDS011;20549;50.042;8.968;2023-12-07T05:19:51;8.13;;;7.33;;
30998;SDS011;20549;50.042;8.968;2023-12-07T05:22:18;7.97;;;6.80;;
30998;SDS011;20549;50.042;8.968;2023-12-07T05:24:44;8.37;;;6.20;;
30998;SDS011;20549;50.042;8.968;2023-12-07T05:27:11;8.97;;;7.13;;
30998;SDS011;20549;50.042;8.968;2023-12-07T05:29:38;9.70;;;7.60;;
30998;SDS011;20549;50.042;8.968;2023-12-07T05:32:04;8.90;;;6.50;;
30998;SDS011;20549;50.042;8.968;2023-12-07T05:34:31;7.83;;;6.87;;
30998;SDS011;20549;50.042;8.968;2023-12-07T05:36:57;8.77;;;7.30;;
30998;SDS011;20549;50.042;8.968;2023-12-07T05:39:24;8.20;;;7.33;;
30998;SDS011;20549;50.042;8.968;2023-12-07T05:41:50;8.93;;;7.23;;
30998;SDS011;20549;50.042;8.968;2023-12-07T05:44:17;9.20;;;7.17;;
30998;SDS011;20549;50.042;8.968;2023-12-07T05:46:44;10.10;;;7.53;;
30998;SDS011;20549;50.042;8.968;2023-12-07T05:49:10;11.77;;;8.10;;
30998;SDS011;20549;50.042;8.968;2023-12-07T05:51:37;8.50;;;7.33;;
30998;SDS011;20549;50.042;8.968;2023-12-07T05:54:03;9.73;;;7.77;;
30998;SDS011;20549;50.042;8.968;2023-12-07T05:56:30;7.87;;;6.53;;
30998;SDS011;20549;50.042;8.968;2023-12-07T05:58:57;9.47;;;7.63;;
30998;SDS011;20549;50.042;8.968;2023-12-07T06:01:23;9.13;;;7.03;;
30998;SDS011;20549;50.042;8.968;2023-12-07T06:03:50;9.83;;;8.07;;
30998;SDS011;20549;50.042;8.968;2023-12-07T06:06:16;10.77;;;8.10;;
30998;SDS011;20549;50.042;8.968;2023-12-07T06:08:43;9.10;;;8.17;;
30998;SDS011;20549;50.042;8.968;2023-12-07T06:11:09;11.83;;;7.50;;
30998;SDS011;20549;50.042;8.968;2023-12-07T06:13:37;10.67;;;8.53;;
30998;SDS011;20549;50.042;8.968;2023-12-07T06:16:03;12.13;;;7.97;;
30998;SDS011;20549;50.042;8.968;2023-12-07T06:18:29;9.87;;;7.57;;
30998;SDS011;20549;50.042;8.968;2023-12-07T06:20:56;10.30;;;8.03;;
30998;SDS011;20549;50.042;8.968;2023-12-07T06:23:22;10.77;;;7.87;;
30998;SDS011;20549;50.042;8.968;2023-12-07T06:25:49;11.40;;;8.10;;
30998;SDS011;20549;50.042;8.968;2023-12-07T06:28:16;10.17;;;8.63;;
30998;SDS011;20549;50.042;8.968;2023-12-07T06:30:42;9.57;;;8.57;;
30998;SDS011;20549;50.042;8.968;2023-12-07T06:33:09;10.43;;;8.20;;
30998;SDS011;20549;50.042;8.968;2023-12-07T06:35:35;10.33;;;8.43;;
30998;SDS011;20549;50.042;8.968;2023-12-07T06:38:02;10.23;;;8.03;;
30998;SDS011;20549;50.042;8.968;2023-12-07T06:40:29;10.60;;;8.73;;
30998;SDS011;20549;50.042;8.968;2023-12-07T06:42:55;9.80;;;7.80;;
30998;SDS011;20549;50.042;8.968;2023-12-07T06:45:22;9.97;;;8.17;;
30998;SDS011;20549;50.042;8.968;2023-12-07T06:47:48;8.67;;;7.77;;
30998;SDS011;20549;50.042;8.968;2023-12-07T06:50:15;9.93;;;8.13;;
30998;SDS011;20549;50.042;8.968;2023-12-07T06:52:41;11.23;;;8.73;;
30998;SDS011;20549;50.042;8.968;2023-12-07T06:55:08;9.63;;;8.00;;
30998;SDS011;20549;50.042;8.968;2023-12-07T06:57:35;10.70;;;8.63;;
30998;SDS011;20549;50.042;8.968;2023-12-07T07:00:01;11.33;;;8.23;;
30998;SDS011;20549;50.042;8.968;2023-12-07T07:02:28;11.03;;;8.83;;
30998;SDS011;20549;50.042;8.968;2023-12-07T07:04:54;11.80;;;8.30;;
30998;SDS011;20549;50.042;8.968;2023-12-07T07:07:21;13.40;;;9.93;;
30998;SDS011;20549;50.042;8.968;2023-12-07T07:09:48;10.97;;;9.50;;
30998;SDS011;20549;50.042;8.968;2023-12-07T07:12:14;10.37;;;8.53;;
30998;SDS011;20549;50.042;8.968;2023-12-07T07:14:42;10.03;;;8.90;;
30998;SDS011;20549;50.042;8.968;2023-12-07T07:17:07;10.63;;;8.73;;
30998;SDS011;20549;50.042;8.968;2023-12-07T07:19:34;11.97;;;10.03;;
30998;SDS011;20549;50.042;8.968;2023-12-07T07:22:00;9.93;;;8.87;;
30998;SDS011;20549;50.042;8.968;2023-12-07T07:24:27;10.23;;;8.60;;
30998;SDS011;20549;50.042;8.968;2023-12-07T07:26:54;9.87;;;8.87;;
30998;SDS011;20549;50.042;8.968;2023-12-07T07:29:20;9.10;;;8.10;;
30998;SDS011;20549;50.042;8.968;2023-12-07T07:31:47;9.50;;;7.60;;
30998;SDS011;20549;50.042;8.968;2023-12-07T07:34:13;9.53;;;8.53;;
30998;SDS011;20549;50.042;8.968;2023-12-07T07:36:40;10.40;;;8.40;;
30998;SDS011;20549;50.042;8.968;2023-12-07T07:39:07;10.47;;;8.20;;
30998;SDS011;20549;50.042;8.968;2023-12-07T07:41:34;9.43;;;8.17;;
30998;SDS011;20549;50.042;8.968;2023-12-07T07:44:00;9.53;;;8.60;;
30998;SDS011;20549;50.042;8.968;2023-12-07T07:46:26;9.30;;;8.33;;
30998;SDS011;20549;50.042;8.968;2023-12-07T07:48:53;9.90;;;8.90;;
30998;SDS011;20549;50.042;8.968;2023-12-07T07:51:19;10.93;;;8.43;;
30998;SDS011;20549;50.042;8.968;2023-12-07T07:53:46;9.97;;;8.97;;
30998;SDS011;20549;50.042;8.968;2023-12-07T07:56:13;11.50;;;8.77;;
30998;SDS011;20549;50.042;8.968;2023-12-07T07:58:39;9.83;;;8.60;;
30998;SDS011;20549;50.042;8.968;2023-12-07T08:01:06;12.17;;;9.40;;
30998;SDS011;20549;50.042;8.968;2023-12-07T08:03:32;12.57;;;9.07;;
30998;SDS011;20549;50.042;8.968;2023-12-07T08:05:59;14.87;;;9.40;;
30998;SDS011;20549;50.042;8.968;2023-12-07T08:08:26;13.20;;;9.97;;
30998;SDS011;20549;50.042;8.968;2023-12-07T08:10:52;11.10;;;9.27;;
30998;SDS011;20549;50.042;8.968;2023-12-07T08:13:19;11.07;;;9.20;;
30998;SDS011;20549;50.042;8.968;2023-12-07T08:15:45;10.37;;;8.83;;
30998;SDS011;20549;50.042;8.968;2023-12-07T08:18:12;13.10;;;9.70;;
30998;SDS011;20549;50.042;8.968;2023-12-07T08:20:39;11.07;;;9.30;;
30998;SDS011;20549;50.042;8.968;2023-12-07T08:23:05;14.23;;;9.53;;
30998;SDS011;20549;50.042;8.968;2023-12-07T08:25:32;12.93;;;10.20;;
30998;SDS011;20549;50.042;8.968;2023-12-07T08:27:58;12.60;;;10.20;;
30998;SDS011;20549;50.042;8.968;2023-12-07T08:30:25;14.17;;;11.00;;
30998;SDS011;20549;50.042;8.968;2023-12-07T08:32:51;11.27;;;9.37;;
30998;SDS011;20549;50.042;8.968;2023-12-07T08:35:18;11.13;;;9.80;;
30998;SDS011;20549;50.042;8.968;2023-12-07T08:37:45;13.73;;;10.23;;
30998;SDS011;20549;50.042;8.968;2023-12-07T08:40:11;14.03;;;9.57;;
30998;SDS011;20549;50.042;8.968;2023-12-07T08:42:38;11.57;;;10.30;;
30998;SDS011;20549;50.042;8.968;2023-12-07T08:45:04;13.03;;;10.03;;
30998;SDS011;20549;50.042;8.968;2023-12-07T08:47:31;11.77;;;10.57;;
30998;SDS011;20549;50.042;8.968;2023-12-07T08:49:58;12.53;;;9.77;;
30998;SDS011;20549;50.042;8.968;2023-12-07T08:52:24;11.23;;;9.17;;
30998;SDS011;20549;50.042;8.968;2023-12-07T08:54:51;10.57;;;9.27;;
30998;SDS011;20549;50.042;8.968;2023-12-07T08:57:18;11.10;;;9.87;;
30998;SDS011;20549;50.042;8.968;2023-12-07T08:59:44;11.40;;;9.60;;
30998;SDS011;20549;50.042;8.968;2023-12-07T09:02:11;11.10;;;9.20;;
30998;SDS011;20549;50.042;8.968;2023-12-07T09:04:37;12.10;;;8.73;;
30998;SDS011;20549;50.042;8.968;2023-12-07T09:07:04;9.97;;;8.87;;
30998;SDS011;20549;50.042;8.968;2023-12-07T09:09:30;9.93;;;8.83;;
30998;SDS011;20549;50.042;8.968;2023-12-07T09:11:57;10.80;;;8.57;;
30998;SDS011;20549;50.042;8.968;2023-12-07T09:14:24;10.00;;;8.53;;
30998;SDS011;20549;50.042;8.968;2023-12-07T09:16:50;10.67;;;8.83;;
30998;SDS011;20549;50.042;8.968;2023-12-07T09:19:17;10.43;;;9.27;;
30998;SDS011;20549;50.042;8.968;2023-12-07T09:21:43;11.27;;;9.50;;
30998;SDS011;20549;50.042;8.968;2023-12-07T09:24:10;11.37;;;9.73;;
30998;SDS011;20549;50.042;8.968;2023-12-07T09:26:36;10.77;;;9.67;;
30998;SDS011;20549;50.042;8.968;2023-12-07T09:29:03;10.30;;;9.20;;
30998;SDS011;20549;50.042;8.968;2023-12-07T09:31:30;11.80;;;9.80;;
30998;SDS011;20549;50.042;8.968;2023-12-07T09:33:56;11.83;;;10.37;;
30998;SDS011;20549;50.042;8.968;2023-12-07T09:36:23;13.00;;;10.90;;
30998;SDS011;20549;50.042;8.968;2023-12-07T09:38:49;13.43;;;10.37;;
30998;SDS011;20549;50.042;8.968;2023-12-07T09:41:16;12.43;;;11.07;;
30998;SDS011;20549;50.042;8.968;2023-12-07T09:43:43;12.23;;;10.83;;
30998;SDS011;20549;50.042;8.968;2023-12-07T09:46:09;13.13;;;11.13;;
30998;SDS011;20549;50.042;8.968;2023-12-07T09:48:36;14.33;;;11.60;;
30998;SDS011;20549;50.042;8.968;2023-12-07T09:51:02;11.93;;;9.90;;
30998;SDS011;20549;50.042;8.968;2023-12-07T09:53:29;12.70;;;10.50;;
30998;SDS011;20549;50.042;8.968;2023-12-07T09:55:55;12.40;;;11.10;;
30998;SDS011;20549;50.042;8.968;2023-12-07T09:58:22;14.07;;;10.97;;
30998;SDS011;20549;50.042;8.968;2023-12-07T10:00:49;14.50;;;11.50;;
30998;SDS011;20549;50.042;8.968;2023-12-07T10:03:22;13.97;;;10.87;;
30998;SDS011;20549;50.042;8.968;2023-12-07T10:06:07;16.87;;;12.10;;
30998;SDS011;20549;50.042;8.968;2023-12-07T10:08:27;12.97;;;11.07;;
30998;SDS011;20549;50.042;8.968;2023-12-07T10:11:02;13.20;;;10.83;;
30998;SDS011;20549;50.042;8.968;2023-12-07T10:13:34;14.67;;;12.20;;
30998;SDS011;20549;50.042;8.968;2023-12-07T10:16:07;13.03;;;11.00;;
30998;SDS011;20549;50.042;8.968;2023-12-07T10:18:36;14.70;;;11.07;;
30998;SDS011;20549;50.042;8.968;2023-12-07T10:21:02;14.47;;;11.67;;
30998;SDS011;20549;50.042;8.968;2023-12-07T10:23:29;15.60;;;12.13;;
30998;SDS011;20549;50.042;8.968;2023-12-07T10:25:55;16.43;;;12.13;;
30998;SDS011;20549;50.042;8.968;2023-12-07T10:28:22;14.13;;;11.60;;
30998;SDS011;20549;50.042;8.968;2023-12-07T10:30:49;14.60;;;12.13;;
30998;SDS011;20549;50.042;8.968;2023-12-07T10:33:15;14.57;;;11.73;;
30998;SDS011;20549;50.042;8.968;2023-12-07T10:35:42;15.30;;;11.60;;
30998;SDS011;20549;50.042;8.968;2023-12-07T10:38:09;13.93;;;11.77;;
30998;SDS011;20549;50.042;8.968;2023-12-07T10:40:35;12.70;;;10.97;;
30998;SDS011;20549;50.042;8.968;2023-12-07T10:43:03;13.97;;;11.27;;
30998;SDS011;20549;50.042;8.968;2023-12-07T10:45:29;13.70;;;11.87;;
30998;SDS011;20549;50.042;8.968;2023-12-07T10:47:56;16.00;;;11.40;;
30998;SDS011;20549;50.042;8.968;2023-12-07T10:50:22;14.00;;;11.13;;
30998;SDS011;20549;50.042;8.968;2023-12-07T10:52:52;14.20;;;10.63;;
30998;SDS011;20549;50.042;8.968;2023-12-07T10:55:19;14.97;;;11.27;;
30998;SDS011;20549;50.042;8.968;2023-12-07T10:57:47;14.53;;;11.47;;
30998;SDS011;20549;50.042;8.968;2023-12-07T11:00:13;13.10;;;11.33;;
30998;SDS011;20549;50.042;8.968;2023-12-07T11:02:40;14.93;;;11.70;;
30998;SDS011;20549;50.042;8.968;2023-12-07T11:05:06;12.90;;;11.10;;
30998;SDS011;20549;50.042;8.968;2023-12-07T11:07:38;13.17;;;10.90;;
30998;SDS011;20549;50.042;8.968;2023-12-07T11:10:15;17.80;;;12.60;;
30998;SDS011;20549;50.042;8.968;2023-12-07T11:12:40;14.87;;;11.77;;
30998;SDS011;20549;50.042;8.968;2023-12-07T11:15:05;13.70;;;11.70;;
30998;SDS011;20549;50.042;8.968;2023-12-07T11:17:47;13.73;;;11.63;;
30998;SDS011;20549;50.042;8.968;2023-12-07T11:19:58;15.30;;;12.47;;
30998;SDS011;20549;50.042;8.968;2023-12-07T11:22:24;14.00;;;10.77;;
30998;SDS011;20549;50.042;8.968;2023-12-07T11:24:55;15.27;;;11.30;;
30998;SDS011;20549;50.042;8.968;2023-12-07T11:27:21;12.33;;;10.17;;
30998;SDS011;20549;50.042;8.968;2023-12-07T11:29:47;13.83;;;11.57;;
30998;SDS011;20549;50.042;8.968;2023-12-07T11:32:14;13.07;;;10.03;;
30998;SDS011;20549;50.042;8.968;2023-12-07T11:34:41;12.33;;;9.47;;
30998;SDS011;20549;50.042;8.968;2023-12-07T11:37:07;14.73;;;11.07;;
30998;SDS011;20549;50.042;8.968;2023-12-07T11:39:36;11.97;;;10.37;;
30998;SDS011;20549;50.042;8.968;2023-12-07T11:42:15;11.90;;;10.23;;
30998;SDS011;20549;50.042;8.968;2023-12-07T11:44:41;12.83;;;10.70;;
30998;SDS011;20549;50.042;8.968;2023-12-07T11:47:08;13.87;;;11.43;;
30998;SDS011;20549;50.042;8.968;2023-12-07T11:49:34;13.70;;;10.77;;
30998;SDS011;20549;50.042;8.968;2023-12-07T11:52:01;13.80;;;10.60;;
30998;SDS011;20549;50.042;8.968;2023-12-07T11:54:27;14.70;;;11.53;;
30998;SDS011;20549;50.042;8.968;2023-12-07T11:56:54;13.73;;;10.80;;
30998;SDS011;20549;50.042;8.968;2023-12-07T11:59:21;14.07;;;11.80;;
30998;SDS011;20549;50.042;8.968;2023-12-07T12:01:47;12.13;;;10.87;;
30998;SDS011;20549;50.042;8.968;2023-12-07T12:04:17;11.40;;;10.13;;
30998;SDS011;20549;50.042;8.968;2023-12-07T12:06:46;11.47;;;9.97;;
30998;SDS011;20549;50.042;8.968;2023-12-07T12:09:11;13.70;;;10.53;;
30998;SDS011;20549;50.042;8.968;2023-12-07T12:11:36;13.13;;;10.93;;
30998;SDS011;20549;50.042;8.968;2023-12-07T12:14:03;13.30;;;11.23;;
30998;SDS011;20549;50.042;8.968;2023-12-07T12:16:29;15.03;;;11.97;;
30998;SDS011;20549;50.042;8.968;2023-12-07T12:18:56;13.40;;;11.67;;
30998;SDS011;20549;50.042;8.968;2023-12-07T12:21:22;14.07;;;11.43;;
30998;SDS011;20549;50.042;8.968;2023-12-07T12:23:49;13.43;;;11.63;;
30998;SDS011;20549;50.042;8.968;2023-12-07T12:26:16;13.77;;;11.73;;
30998;SDS011;20549;50.042;8.968;2023-12-07T12:28:42;12.97;;;11.57;;
30998;SDS011;20549;50.042;8.968;2023-12-07T12:31:09;14.73;;;13.13;;
30998;SDS011;20549;50.042;8.968;2023-12-07T12:33:36;14.40;;;12.07;;
30998;SDS011;20549;50.042;8.968;2023-12-07T12:36:02;13.30;;;11.90;;
30998;SDS011;20549;50.042;8.968;2023-12-07T12:38:28;11.60;;;10.33;;
30998;SDS011;20549;50.042;8.968;2023-12-07T12:40:55;11.27;;;10.17;;
30998;SDS011;20549;50.042;8.968;2023-12-07T12:43:22;10.50;;;9.50;;
30998;SDS011;20549;50.042;8.968;2023-12-07T12:45:48;10.37;;;9.37;;
30998;SDS011;20549;50.042;8.968;2023-12-07T12:48:15;10.27;;;9.27;;
30998;SDS011;20549;50.042;8.968;2023-12-07T12:50:41;9.83;;;8.83;;
30998;SDS011;20549;50.042;8.968;2023-12-07T12:53:09;9.27;;;8.37;;
30998;SDS011;20549;50.042;8.968;2023-12-07T12:55:35;9.67;;;8.57;;
30998;SDS011;20549;50.042;8.968;2023-12-07T12:58:01;10.37;;;9.27;;
30998;SDS011;20549;50.042;8.968;2023-12-07T13:00:28;9.27;;;8.37;;
30998;SDS011;20549;50.042;8.968;2023-12-07T13:02:54;9.53;;;8.53;;
30998;SDS011;20549;50.042;8.968;2023-12-07T13:05:21;8.90;;;8.10;;
30998;SDS011;20549;50.042;8.968;2023-12-07T13:07:47;8.97;;;8.07;;
30998;SDS011;20549;50.042;8.968;2023-12-07T13:10:15;9.07;;;8.27;;
30998;SDS011;20549;50.042;8.968;2023-12-07T13:12:41;8.70;;;7.87;;
30998;SDS011;20549;50.042;8.968;2023-12-07T13:15:08;8.50;;;7.70;;
30998;SDS011;20549;50.042;8.968;2023-12-07T13:17:34;9.67;;;8.63;;
30998;SDS011;20549;50.042;8.968;2023-12-07T13:20:01;8.47;;;7.60;;
30998;SDS011;20549;50.042;8.968;2023-12-07T13:22:27;8.63;;;7.83;;
30998;SDS011;20549;50.042;8.968;2023-12-07T13:24:54;9.17;;;8.23;;
30998;SDS011;20549;50.042;8.968;2023-12-07T13:27:20;8.60;;;6.93;;
30998;SDS011;20549;50.042;8.968;2023-12-07T13:29:47;7.90;;;7.10;;
30998;SDS011;20549;50.042;8.968;2023-12-07T13:32:13;8.13;;;7.33;;
30998;SDS011;20549;50.042;8.968;2023-12-07T13:34:40;8.10;;;7.30;;
30998;SDS011;20549;50.042;8.968;2023-12-07T13:37:07;9.57;;;7.93;;
30998;SDS011;20549;50.042;8.968;2023-12-07T13:39:33;9.47;;;8.23;;
30998;SDS011;20549;50.042;8.968;2023-12-07T13:42:00;9.03;;;8.13;;
30998;SDS011;20549;50.042;8.968;2023-12-07T13:44:26;8.33;;;7.53;;
30998;SDS011;20549;50.042;8.968;2023-12-07T13:46:53;8.37;;;7.50;;
30998;SDS011;20549;50.042;8.968;2023-12-07T13:49:20;7.50;;;6.80;;
30998;SDS011;20549;50.042;8.968;2023-12-07T13:51:46;8.10;;;7.30;;
30998;SDS011;20549;50.042;8.968;2023-12-07T13:54:13;7.33;;;6.53;;
30998;SDS011;20549;50.042;8.968;2023-12-07T13:56:39;7.57;;;6.13;;
30998;SDS011;20549;50.042;8.968;2023-12-07T13:59:06;7.33;;;6.67;;
30998;SDS011;20549;50.042;8.968;2023-12-07T14:01:32;6.63;;;6.03;;
30998;SDS011;20549;50.042;8.968;2023-12-07T14:03:59;6.83;;;6.13;;
30998;SDS011;20549;50.042;8.968;2023-12-07T14:06:26;6.97;;;6.10;;
30998;SDS011;20549;50.042;8.968;2023-12-07T14:08:52;6.57;;;5.90;;
30998;SDS011;20549;50.042;8.968;2023-12-07T14:11:19;7.07;;;5.50;;
30998;SDS011;20549;50.042;8.968;2023-12-07T14:13:45;5.77;;;5.27;;
30998;SDS011;20549;50.042;8.968;2023-12-07T14:16:12;6.37;;;5.77;;
30998;SDS011;20549;50.042;8.968;2023-12-07T14:18:39;5.97;;;4.93;;
30998;SDS011;20549;50.042;8.968;2023-12-07T14:21:05;7.20;;;5.93;;
30998;SDS011;20549;50.042;8.968;2023-12-07T14:23:32;6.00;;;5.37;;
30998;SDS011;20549;50.042;8.968;2023-12-07T14:25:58;6.60;;;5.77;;
30998;SDS011;20549;50.042;8.968;2023-12-07T14:28:25;6.37;;;5.77;;
30998;SDS011;20549;50.042;8.968;2023-12-07T14:30:51;7.03;;;6.40;;
30998;SDS011;20549;50.042;8.968;2023-12-07T14:33:18;7.80;;;7.00;;
30998;SDS011;20549;50.042;8.968;2023-12-07T14:35:45;8.13;;;7.23;;
30998;SDS011;20549;50.042;8.968;2023-12-07T14:38:11;7.33;;;6.53;;